Time;durP1;ratioP1;P1;durP2;ratioP2;P2;SDS_P1;SDS_P2;PMS_P1;PMS_P2;Temp;Humidity;BMP_temperature;BMP_pressure;BME280_temperature;BME280_humidity;BME280_pressure;Samples;Min_cycle;Max_cycle;Signal;HPM_P1;HPM_P2
2022/10/03 00:02:05;;;;;;;4.50;1.50;;;;;;;13.17;67.72;100354.22;5027223;28;20465;-76
2022/10/03 00:04:36;;;;;;;2.83;1.25;;;;;;;13.14;69.47;100360.41;5027313;28;20482;-76
2022/10/03 00:07:23;;;;;;;3.00;1.50;;;;;;;12.52;68.19;100240.84;5021619;28;20048;-77
2022/10/03 00:10:07;;;;;;;3.10;1.40;;;;;;;13.10;72.03;100340.25;5020585;28;20136;-76
2022/10/03 00:12:57;;;;;;;3.67;1.42;;;;;;;12.88;69.53;100332.59;5023413;28;20088;-77
2022/10/03 00:15:40;;;;;;;6.47;1.70;;;;;;;13.00;73.60;100322.81;5021903;28;20039;-75
2022/10/03 00:18:39;;;;;;;4.10;1.53;;;;;;;12.88;72.08;100313.28;5026347;28;20045;-76
2022/10/03 00:21:26;;;;;;;3.50;1.10;;;;;;;12.97;70.32;100307.91;5018547;28;20057;-76
2022/10/03 00:23:58;;;;;;;3.33;1.40;;;;;;;12.94;71.71;100315.84;5027061;28;20121;-75
2022/10/03 00:26:27;;;;;;;7.53;1.65;;;;;;;12.81;70.60;100287.91;5021571;28;20049;-76
2022/10/03 00:29:04;;;;;;;3.92;1.30;;;;;;;12.67;71.77;100257.34;5021408;28;20037;-76
2022/10/03 00:31:55;;;;;;;3.83;1.30;;;;;;;12.61;70.83;100294.25;5026802;28;20052;-76
2022/10/03 00:34:51;;;;;;;3.60;1.08;;;;;;;12.71;72.42;100278.34;5018437;28;20137;-75
2022/10/03 00:37:22;;;;;;;2.42;1.35;;;;;;;12.65;69.46;100284.56;5017150;28;20049;-75
2022/10/03 00:40:34;;;;;;;2.17;1.30;;;;;;;12.73;74.65;100295.00;5026628;28;20547;-75
2022/10/03 00:43:49;;;;;;;3.30;1.45;;;;;;;12.61;75.38;100296.00;5026351;28;20840;-75
2022/10/03 00:46:36;;;;;;;2.40;0.88;;;;;;;12.53;75.17;100311.88;5027092;28;21455;-76
2022/10/03 00:49:37;;;;;;;4.20;1.50;;;;;;;12.60;74.71;100297.78;5025071;28;20559;-74
2022/10/03 00:52:37;;;;;;;3.58;1.38;;;;;;;12.52;76.53;100296.97;5014320;28;20088;-76
2022/10/03 00:55:27;;;;;;;5.15;1.65;;;;;;;12.33;79.63;100295.41;5008643;28;20049;-77
2022/10/03 00:58:03;;;;;;;3.35;1.48;;;;;;;12.35;78.36;100289.25;5022368;28;20046;-76
2022/10/03 01:00:32;;;;;;;2.97;1.35;;;;;;;11.53;79.64;100186.47;5026686;28;20044;-77
2022/10/03 01:03:29;;;;;;;8.65;2.47;;;;;;;12.17;78.75;100292.03;5021618;28;20042;-74
2022/10/03 01:06:35;;;;;;;3.55;1.55;;;;;;;11.57;76.26;100277.53;5016423;28;20140;-76
2022/10/03 01:09:10;;;;;;;4.18;1.60;;;;;;;11.95;78.86;100281.69;4981242;28;20045;-75
2022/10/03 01:11:38;;;;;;;4.40;1.30;;;;;;;11.40;78.91;100180.44;5021910;28;20069;-76
2022/10/03 01:14:10;;;;;;;5.78;1.73;;;;;;;11.92;81.27;100268.56;5026326;28;20033;-77
2022/10/03 01:16:50;;;;;;;8.70;1.75;;;;;;;11.94;80.69;100282.59;5023382;28;20095;-75
2022/10/03 01:19:36;;;;;;;2.60;1.30;;;;;;;12.02;77.99;100296.53;5017482;28;20057;-75
2022/10/03 01:22:30;;;;;;;4.40;1.95;;;;;;;11.99;80.00;100301.81;5022524;28;20156;-77
2022/10/03 01:25:10;;;;;;;3.17;1.02;;;;;;;11.16;77.00;100175.34;5006706;28;20455;-76
2022/10/03 01:30:50;;;;;;;5.07;1.20;;;;;;;11.80;76.76;100297.56;5025791;28;20088;-74
2022/10/03 01:33:26;;;;;;;6.72;2.08;;;;;;;12.02;76.64;100293.91;5025724;28;20037;-76
2022/10/03 01:36:11;;;;;;;3.88;1.67;;;;;;;11.38;79.52;100176.09;5025981;28;20135;-76
2022/10/03 01:38:56;;;;;;;9.23;1.95;;;;;;;12.02;79.79;100308.81;5024378;28;20045;-76
2022/10/03 01:41:41;;;;;;;4.65;1.98;;;;;;;11.00;76.86;100158.81;5006458;28;20050;-75
2022/10/03 01:44:42;;;;;;;8.55;2.55;;;;;;;11.93;80.42;100301.88;5013450;28;20081;-77
2022/10/03 01:47:26;;;;;;;7.90;2.15;;;;;;;11.90;81.20;100296.63;4983118;28;20045;-76
2022/10/03 01:50:18;;;;;;;10.40;2.08;;;;;;;11.78;83.68;100294.94;5007907;28;20041;-77
2022/10/03 01:52:59;;;;;;;4.35;1.58;;;;;;;11.06;81.29;100169.28;5015035;28;20025;-76
2022/10/03 01:55:40;;;;;;;5.60;1.77;;;;;;;11.06;84.10;100179.78;5017935;28;20041;-75
2022/10/03 01:58:18;;;;;;;10.15;2.13;;;;;;;11.76;82.47;100294.06;5015956;28;20096;-76
2022/10/03 02:00:56;;;;;;;3.28;1.48;;;;;;;11.38;82.31;100245.25;5013029;28;20493;-76
2022/10/03 02:03:32;;;;;;;6.75;1.83;;;;;;;11.05;82.76;100185.03;5025395;28;20057;-75
2022/10/03 02:06:12;;;;;;;8.75;2.67;;;;;;;11.77;82.62;100318.59;5019776;28;20068;-75
2022/10/03 02:08:53;;;;;;;7.85;2.45;;;;;;;11.70;81.83;100301.97;5011252;28;20063;-75
2022/10/03 02:11:37;;;;;;;3.53;2.03;;;;;;;11.78;82.73;100308.06;5008379;28;20073;-76
2022/10/03 02:14:15;;;;;;;8.50;1.85;;;;;;;11.03;79.74;100174.56;5009489;28;20038;-75
2022/10/03 02:16:44;;;;;;;5.85;1.73;;;;;;;11.86;79.34;100315.03;4991578;28;20384;-75
2022/10/03 02:19:28;;;;;;;5.57;2.10;;;;;;;11.16;81.56;100206.84;4992437;28;20033;-77
2022/10/03 02:21:55;;;;;;;;;;;;;;;11.80;77.73;100319.47;4999733;28;20050;-74
2022/10/03 02:24:35;;;;;;;3.58;1.85;;;;;;;11.89;77.87;100330.81;4991959;28;19960;-74
2022/10/03 02:27:10;;;;;;;5.18;1.95;;;;;;;12.00;75.31;100314.06;5013341;28;20053;-75
2022/10/03 02:29:38;;;;;;;4.10;2.05;;;;;;;11.96;75.41;100304.50;5014151;28;20038;-76
2022/10/03 02:32:13;;;;;;;3.80;1.55;;;;;;;11.25;77.82;100175.28;5009035;28;20065;-75
2022/10/03 02:35:16;;;;;;;3.42;1.52;;;;;;;12.03;77.42;100307.91;5006366;28;20792;-76
2022/10/03 02:38:04;;;;;;;7.88;2.03;;;;;;;12.07;78.98;100296.50;5006763;28;20037;-77
2022/10/03 02:40:51;;;;;;;4.00;2.03;;;;;;;11.92;77.73;100310.66;4991969;28;20355;-75
2022/10/03 02:43:42;;;;;;;6.97;2.38;;;;;;;12.02;76.69;100317.56;5002154;28;20041;-76
2022/10/03 02:46:31;;;;;;;4.70;2.22;;;;;;;12.13;79.73;100303.50;5009593;28;20115;-76
2022/10/03 02:49:22;;;;;;;4.00;1.52;;;;;;;11.48;76.69;100204.03;5009120;28;20069;-76
2022/10/03 02:51:53;;;;;;;4.97;2.20;;;;;;;12.04;75.85;100325.47;5010058;28;20049;-77
2022/10/03 02:54:28;;;;;;;7.57;2.25;;;;;;;12.07;76.82;100312.28;5009331;28;20042;-74
2022/10/03 02:57:27;;;;;;;3.72;1.52;;;;;;;12.08;75.96;100315.78;5006844;28;20049;-74
2022/10/03 03:00:10;;;;;;;4.95;2.42;;;;;;;12.06;76.50;100314.91;5006053;28;20145;-75
2022/10/03 03:02:54;;;;;;;6.20;2.08;;;;;;;12.01;76.92;100313.22;4998902;28;20046;-75
2022/10/03 03:05:29;;;;;;;5.20;2.63;;;;;;;12.14;76.05;100321.88;5002433;28;20050;-76
2022/10/03 03:08:20;;;;;;;6.22;2.35;;;;;;;12.11;77.53;100305.25;5001410;28;20400;-76
2022/10/03 03:11:07;;;;;;;5.30;2.33;;;;;;;11.67;79.19;100209.16;5019134;28;20069;-75
2022/10/03 03:13:54;;;;;;;9.23;3.13;;;;;;;12.26;76.63;100320.88;5028777;28;20065;-74
2022/10/03 03:16:26;;;;;;;7.10;2.42;;;;;;;12.19;76.43;100317.44;5028408;28;20073;-77
2022/10/03 03:18:54;;;;;;;6.28;2.88;;;;;;;11.98;77.94;100321.09;5025339;28;20034;-76
2022/10/03 03:21:33;;;;;;;6.20;2.83;;;;;;;11.16;76.93;100162.22;5014686;28;20584;-77
2022/10/03 03:24:18;;;;;;;7.32;2.50;;;;;;;11.98;79.43;100272.91;5027926;28;20152;-74
2022/10/03 03:26:46;;;;;;;7.43;2.80;;;;;;;12.29;79.25;100325.25;5017053;28;20033;-75
2022/10/03 03:29:19;;;;;;;8.93;2.95;;;;;;;12.16;79.24;100317.47;5028460;28;20042;-76
2022/10/03 03:32:10;;;;;;;5.68;3.00;;;;;;;11.56;79.63;100212.72;5027720;28;20036;-75
2022/10/03 03:35:05;;;;;;;3.28;1.73;;;;;;;12.02;76.25;100296.53;5027779;28;20042;-75
2022/10/03 03:38:04;;;;;;;5.55;2.03;;;;;;;11.95;78.62;100270.31;5014976;28;20049;-76
2022/10/03 03:41:07;;;;;;;8.18;3.00;;;;;;;12.31;78.34;100294.53;5015574;28;20037;-76
2022/10/03 03:43:50;;;;;;;6.18;2.50;;;;;;;12.28;78.92;100284.91;5026989;28;20103;-74
2022/10/03 03:46:39;;;;;;;7.47;3.70;;;;;;;12.21;79.30;100278.84;5027968;28;20044;-76
2022/10/03 03:49:16;;;;;;;3.63;1.92;;;;;;;12.28;78.71;100282.28;5027940;28;20041;-75
2022/10/03 03:52:07;;;;;;;4.22;2.08;;;;;;;11.71;79.67;100176.72;5023875;28;20112;-75
2022/10/03 03:55:06;;;;;;;6.60;2.55;;;;;;;12.09;76.38;100312.28;5025109;28;20108;-75
2022/10/03 03:57:58;;;;;;;7.30;2.78;;;;;;;12.20;77.25;100302.53;5027300;28;20529;-74
2022/10/03 04:00:49;;;;;;;6.15;2.95;;;;;;;12.07;75.43;100293.88;5027314;28;20046;-75
2022/10/03 04:04:03;;;;;;;5.18;2.53;;;;;;;12.20;75.19;100289.41;5026835;28;20053;-74
2022/10/03 04:06:55;;;;;;;3.47;1.30;;;;;;;12.02;73.98;100290.41;4961367;28;20052;-76
2022/10/03 04:09:42;;;;;;;6.80;3.20;;;;;;;12.08;75.57;100300.00;5027161;28;20115;-75
2022/10/03 04:12:35;;;;;;;4.53;2.25;;;;;;;12.13;76.31;100299.09;5012556;28;20087;-74
2022/10/03 04:15:15;;;;;;;6.00;2.28;;;;;;;12.08;76.01;100313.16;4999756;28;20049;-76
2022/10/03 04:21:08;;;;;;;5.85;2.85;;;;;;;11.94;75.51;100289.56;5008147;28;20076;-77
2022/10/03 04:23:57;;;;;;;7.47;2.65;;;;;;;11.84;74.07;100304.53;5016179;28;20480;-76
2022/10/03 04:27:01;;;;;;;8.55;3.05;;;;;;;12.06;75.10;100313.19;5026890;28;20048;-77
2022/10/03 04:29:39;;;;;;;7.60;3.83;;;;;;;11.70;73.61;100264.31;5009902;28;20045;-76
2022/10/03 04:32:23;;;;;;;12.95;2.50;;;;;;;12.07;73.14;100314.91;5025716;28;20041;-76
2022/10/03 04:35:13;;;;;;;10.60;3.28;;;;;;;11.22;74.25;100164.81;5022043;28;20033;-75
2022/10/03 04:38:11;;;;;;;6.25;2.30;;;;;;;12.04;74.64;100312.31;5022672;28;20079;-75
2022/10/03 04:40:51;;;;;;;10.07;2.55;;;;;;;12.02;73.52;100309.69;5023004;28;20033;-76
2022/10/03 04:43:41;;;;;;;5.47;2.85;;;;;;;12.06;76.96;100302.66;5024221;28;20049;-73
2022/10/03 04:46:27;;;;;;;8.68;2.90;;;;;;;12.05;74.22;100298.25;5025587;28;20501;-76
2022/10/03 04:49:04;;;;;;;10.35;3.20;;;;;;;12.17;75.04;100302.56;5020882;28;20053;-76
2022/10/03 04:51:41;;;;;;;7.28;2.90;;;;;;;12.16;76.93;100306.94;5025347;28;20825;-77
2022/10/03 04:54:31;;;;;;;5.22;2.72;;;;;;;11.97;75.50;100251.00;5024810;28;20352;-75
2022/10/03 04:57:09;;;;;;;4.03;2.35;;;;;;;12.34;72.66;100298.03;5025539;28;20048;-76
2022/10/03 04:59:38;;;;;;;5.95;3.38;;;;;;;12.28;72.91;100310.38;5025509;28;20184;-77
2022/10/03 05:02:07;;;;;;;11.98;2.50;;;;;;;12.35;75.81;100291.88;5024225;28;20485;-75
2022/10/03 05:04:52;;;;;;;13.02;10.02;;;;;;;11.70;71.93;100173.19;5008259;28;20108;-76
2022/10/03 05:07:42;;;;;;;8.30;2.60;;;;;;;12.40;76.88;100292.69;5012766;28;20052;-76
2022/10/03 05:10:35;;;;;;;6.63;2.17;;;;;;;12.37;75.91;100276.06;5025613;28;20053;-75
2022/10/03 05:13:00;;;;;;;8.55;2.65;;;;;;;12.33;75.31;100285.75;5022665;28;20049;-77
2022/10/03 05:15:39;;;;;;;7.78;3.42;;;;;;;11.64;75.92;100146.97;5025289;28;20393;-77
2022/10/03 05:18:39;;;;;;;9.95;2.75;;;;;;;11.80;73.79;100166.97;5025346;28;20042;-74
2022/10/03 05:21:30;;;;;;;11.45;2.40;;;;;;;12.53;76.39;100285.56;5020458;28;20088;-77
2022/10/03 05:24:06;;;;;;;5.43;2.67;;;;;;;12.51;75.11;100268.06;5010602;28;20132;-76
2022/10/03 05:26:53;;;;;;;6.50;2.67;;;;;;;12.63;71.62;100283.72;5000445;28;20643;-76
2022/10/03 05:29:42;;;;;;;7.45;2.88;;;;;;;12.62;75.32;100277.56;5030865;28;20173;-75
2022/10/03 05:32:43;;;;;;;8.07;3.13;;;;;;;12.53;75.54;100248.72;5029823;28;20038;-76
2022/10/03 05:35:26;;;;;;;5.55;2.70;;;;;;;12.70;73.24;100280.13;5029958;28;20551;-76
2022/10/03 05:38:23;;;;;;;8.70;3.45;;;;;;;12.77;70.61;100263.38;5011693;28;20344;-77
2022/10/03 05:41:17;;;;;;;8.07;3.17;;;;;;;12.71;71.16;100223.94;5030114;28;20157;-75
2022/10/03 05:43:56;;;;;;;8.07;3.63;;;;;;;13.12;72.78;100285.78;5017376;28;20087;-75
2022/10/03 05:46:50;;;;;;;14.25;3.47;;;;;;;13.22;72.08;100276.00;5030357;28;20037;-76
2022/10/03 05:49:38;;;;;;;15.93;3.53;;;;;;;13.30;72.27;100279.44;5030238;28;20034;-75
2022/10/03 05:52:15;;;;;;;8.82;3.03;;;;;;;13.21;70.61;100276.91;5019930;28;20041;-74
2022/10/03 05:55:02;;;;;;;9.10;3.65;;;;;;;12.56;67.94;100166.22;5011918;28;20111;-76
2022/10/03 05:57:54;;;;;;;12.30;4.03;;;;;;;12.77;68.54;100196.69;5026205;28;20124;-76
2022/10/03 06:00:30;;;;;;;8.23;3.03;;;;;;;13.21;67.75;100276.91;5029365;28;20045;-76
2022/10/03 06:03:22;;;;;;;8.82;3.67;;;;;;;13.06;68.05;100277.94;5028054;28;20121;-76
2022/10/03 06:06:07;;;;;;;8.80;3.22;;;;;;;13.26;69.50;100280.34;4985997;28;20037;-76
2022/10/03 06:08:40;;;;;;;10.85;3.38;;;;;;;13.39;69.53;100292.50;5028941;28;20049;-75
2022/10/03 06:11:33;;;;;;;9.65;3.28;;;;;;;13.55;66.24;100297.53;4996671;28;20073;-75
2022/10/03 06:14:23;;;;;;;11.82;3.35;;;;;;;13.54;66.76;100298.44;5009310;28;20060;-76
2022/10/03 06:17:30;;;;;;;4.85;2.60;;;;;;;13.52;66.44;100293.19;5005388;28;20031;-75
2022/10/03 06:20:13;;;;;;;9.50;2.88;;;;;;;13.65;68.70;100297.41;4961617;28;20038;-75
2022/10/03 06:22:42;;;;;;;9.18;3.28;;;;;;;13.77;67.99;100288.44;5004298;28;20073;-76
2022/10/03 06:25:36;;;;;;;16.50;3.35;;;;;;;13.51;64.97;100304.63;5009969;28;20025;-76
2022/10/03 06:28:49;;;;;;;6.18;3.15;;;;;;;12.89;65.26;100171.03;5008927;28;20053;-77
2022/10/03 06:31:50;;;;;;;8.23;2.95;;;;;;;13.76;64.97;100304.28;4940987;28;20121;-76
2022/10/03 06:34:34;;;;;;;9.75;2.50;;;;;;;13.87;66.49;100297.06;4996445;28;20372;-77
2022/10/03 06:37:22;;;;;;;9.82;2.72;;;;;;;13.89;66.10;100297.94;5004069;28;20042;-75
2022/10/03 06:40:20;;;;;;;19.73;2.83;;;;;;;13.94;69.06;100304.84;5004377;28;20061;-76
2022/10/03 06:42:55;;;;;;;8.40;2.72;;;;;;;13.90;66.17;100311.06;5008806;28;20090;-76
2022/10/03 06:45:48;;;;;;;10.02;1.67;;;;;;;14.09;66.45;100314.31;4999894;28;20045;-75
2022/10/03 06:48:35;;;;;;;9.07;1.92;;;;;;;14.13;66.54;100309.84;5005874;28;20077;-75
2022/10/03 06:51:21;;;;;;;5.55;2.10;;;;;;;13.99;66.03;100322.41;4990443;28;20073;-75
2022/10/03 06:54:21;;;;;;;7.90;2.38;;;;;;;14.08;65.94;100317.84;5006977;28;20046;-75
2022/10/03 06:57:25;;;;;;;5.50;1.83;;;;;;;14.22;65.27;100319.38;4981670;28;20042;-74
2022/10/03 07:00:02;;;;;;;7.93;2.42;;;;;;;14.21;65.80;100320.28;4995906;28;20073;-75
2022/10/03 07:02:53;;;;;;;7.35;2.65;;;;;;;13.68;67.15;100206.84;5003580;28;20042;-76
2022/10/03 07:05:37;;;;;;;8.55;3.67;;;;;;;13.67;65.78;100211.25;5007357;28;20497;-75
2022/10/03 07:08:17;;;;;;;10.88;2.72;;;;;;;14.59;66.70;100322.31;4990078;28;20459;-76
2022/10/03 07:10:49;;;;;;;9.48;2.88;;;;;;;14.33;67.39;100331.50;5005281;28;20060;-74
2022/10/03 07:13:49;;;;;;;14.80;3.28;;;;;;;13.71;65.61;100186.53;5007173;28;20033;-75
2022/10/03 07:16:33;;;;;;;7.65;2.17;;;;;;;14.66;67.42;100304.59;4990208;28;20049;-75
2022/10/03 07:19:36;;;;;;;4.32;2.20;;;;;;;14.80;67.60;100299.91;5007839;28;20042;-75
2022/10/03 07:22:40;;;;;;;8.13;3.00;;;;;;;14.43;66.39;100311.09;4997303;28;20058;-76
2022/10/03 07:25:30;;;;;;;6.43;2.20;;;;;;;14.66;66.63;100299.31;5006554;28;20136;-75
2022/10/03 07:28:26;;;;;;;10.68;2.95;;;;;;;14.69;65.37;100300.09;5007651;28;20041;-76
2022/10/03 07:31:07;;;;;;;8.70;2.75;;;;;;;14.88;66.79;100299.75;5007854;28;20057;-74
2022/10/03 07:34:02;;;;;;;6.65;2.67;;;;;;;14.91;66.96;100303.22;5002333;28;20069;-76
2022/10/03 07:40:11;;;;;;;11.50;4.05;;;;;;;14.63;67.13;100294.91;4998997;28;20642;-77
2022/10/03 07:43:14;;;;;;;8.47;2.07;;;;;;;14.81;67.76;100298.13;5003357;28;20038;-75
2022/10/03 07:46:13;;;;;;;9.93;2.55;;;;;;;15.10;67.59;100298.44;5003152;28;20038;-78
2022/10/03 07:48:51;;;;;;;5.72;2.00;;;;;;;15.29;67.26;100305.94;5002230;28;20046;-75
2022/10/03 07:51:35;;;;;;;9.57;3.00;;;;;;;14.61;65.94;100167.34;5006272;28;20046;-76
2022/10/03 07:54:07;;;;;;;8.45;2.90;;;;;;;14.50;66.57;100200.97;4989656;28;20033;-75
2022/10/03 07:56:41;;;;;;;9.30;2.38;;;;;;;15.25;67.55;100293.72;5007197;28;20084;-76
2022/10/03 07:59:16;;;;;;;7.32;3.22;;;;;;;15.43;67.11;100293.34;5006944;28;20048;-75
2022/10/03 08:02:00;;;;;;;8.52;3.42;;;;;;;15.46;66.09;100250.09;5006642;28;20549;-75
2022/10/03 08:04:43;;;;;;;10.10;3.13;;;;;;;15.83;64.65;100280.09;4998645;28;20120;-74
2022/10/03 08:07:41;;;;;;;8.18;3.53;;;;;;;16.03;64.67;100270.78;5006123;28;20054;-77
2022/10/03 08:10:19;;;;;;;6.13;2.35;;;;;;;15.56;65.43;100173.13;5008886;28;20156;-75
2022/10/03 08:12:47;;;;;;;7.15;2.25;;;;;;;16.28;65.00;100278.13;5005506;28;20069;-75
2022/10/03 08:15:24;;;;;;;9.52;3.10;;;;;;;16.21;63.37;100272.97;5006786;28;20397;-75
2022/10/03 08:18:17;;;;;;;6.90;2.63;;;;;;;16.30;63.65;100268.38;5005612;28;20045;-76
2022/10/03 08:20:55;;;;;;;4.45;2.78;;;;;;;16.23;64.19;100235.88;4987833;28;20050;-76
2022/10/03 08:23:32;;;;;;;8.00;2.70;;;;;;;16.28;61.79;100265.75;5011414;28;20124;-76
2022/10/03 08:26:10;;;;;;;8.80;2.67;;;;;;;16.31;62.04;100265.66;5011342;28;20078;-75
2022/10/03 08:29:01;;;;;;;6.65;2.80;;;;;;;16.22;61.79;100272.09;5008626;28;20034;-76
2022/10/03 08:31:27;;;;;;;4.88;2.20;;;;;;;16.45;61.75;100262.66;4966418;28;20057;-76
2022/10/03 08:34:28;;;;;;;4.30;1.85;;;;;;;16.54;61.97;100270.34;5001345;28;20046;-75
2022/10/03 08:37:32;;;;;;;5.95;2.70;;;;;;;16.53;62.05;100262.44;5002232;28;20054;-76
2022/10/03 08:40:33;;;;;;;12.55;2.08;;;;;;;16.53;62.03;100254.50;5006363;28;20134;-77
2022/10/03 08:42:59;;;;;;;5.50;1.45;;;;;;;16.44;62.62;100247.69;5006734;28;20197;-75
2022/10/03 08:45:51;;;;;;;4.00;1.52;;;;;;;16.41;63.28;100229.22;5006107;28;20153;-74
2022/10/03 08:48:56;;;;;;;7.82;2.90;;;;;;;16.41;62.89;100222.16;5007002;28;20116;-77
2022/10/03 08:51:42;;;;;;;19.27;6.63;;;;;;;16.49;64.29;100229.03;5002859;28;20068;-75
2022/10/03 08:54:17;;;;;;;10.55;2.25;;;;;;;16.39;63.31;100246.94;5006192;28;20076;-75
2022/10/03 08:57:01;;;;;;;7.53;2.38;;;;;;;16.27;65.59;100223.41;5004256;28;20046;-76
2022/10/03 08:59:45;;;;;;;6.43;2.38;;;;;;;16.19;64.30;100239.50;5002639;28;20034;-77
2022/10/03 09:02:28;;;;;;;8.35;2.88;;;;;;;16.44;65.61;100237.97;4999145;28;20070;-77
2022/10/03 09:05:26;;;;;;;11.63;3.47;;;;;;;16.64;64.48;100229.44;5006040;28;20462;-75
2022/10/03 09:07:58;;;;;;;3.83;2.42;;;;;;;16.83;64.20;100237.81;4993075;28;20438;-76
2022/10/03 09:11:15;;;;;;;7.47;3.17;;;;;;;16.95;64.26;100228.63;5002937;28;20048;-75
2022/10/03 09:14:09;;;;;;;8.23;2.45;;;;;;;16.88;64.22;100224.41;5003209;28;20125;-76
2022/10/03 09:17:06;;;;;;;5.32;1.85;;;;;;;16.92;63.97;100223.41;5002385;28;20121;-75
2022/10/03 09:19:37;;;;;;;5.03;2.03;;;;;;;16.84;63.94;100215.69;5004516;28;20034;-76
2022/10/03 09:22:43;;;;;;;2.25;1.05;;;;;;;16.94;64.82;100210.97;5006318;28;20097;-77
2022/10/03 09:25:54;;;;;;;6.43;1.70;;;;;;;17.12;64.76;100206.06;4994595;28;20061;-75
2022/10/03 09:28:52;;;;;;;6.13;1.92;;;;;;;16.35;65.33;100089.91;4957213;28;20042;-75
2022/10/03 09:31:24;;;;;;;8.90;3.35;;;;;;;17.07;65.90;100200.88;4974672;28;20054;-75
2022/10/03 09:34:07;;;;;;;2.95;1.73;;;;;;;16.46;66.49;100079.88;5003574;28;20076;-77
2022/10/03 09:36:51;;;;;;;2.78;1.17;;;;;;;17.33;66.44;100189.47;5006183;28;20053;-77
2022/10/03 09:39:54;;;;;;;7.65;2.10;;;;;;;17.37;66.42;100192.88;4994882;28;20117;-76
2022/10/03 09:42:48;;;;;;;6.65;1.73;;;;;;;16.51;65.89;100078.88;4988019;28;20482;-76
2022/10/03 09:45:58;;;;;;;3.15;1.27;;;;;;;17.22;66.17;100196.88;5005819;28;20049;-77
2022/10/03 09:49:08;;;;;;;3.17;1.17;;;;;;;17.16;67.57;100168.78;4984687;28;20080;-75
2022/10/03 09:51:56;;;;;;;5.10;1.30;;;;;;;17.49;67.90;100193.38;5003193;28;20049;-77
2022/10/03 09:54:34;;;;;;;4.57;1.20;;;;;;;17.43;66.80;100203.31;4959770;28;20494;-77
2022/10/03 09:57:03;;;;;;;8.40;2.83;;;;;;;16.25;67.43;99982.56;5003758;28;20042;-75
2022/10/03 09:59:44;;;;;;;9.40;1.95;;;;;;;17.56;66.14;100209.06;5002361;28;20512;-75
2022/10/03 10:02:32;;;;;;;5.45;1.70;;;;;;;17.55;67.79;100202.03;5005177;28;20432;-75
2022/10/03 10:05:30;;;;;;;4.20;1.50;;;;;;;16.76;68.08;100066.59;4944804;28;20039;-76
2022/10/03 10:08:08;;;;;;;4.60;1.27;;;;;;;17.06;68.88;100088.66;4996666;28;20045;-77
2022/10/03 10:10:58;;;;;;;1.05;0.60;;;;;;;17.52;68.26;100193.28;4988747;28;20072;-77
2022/10/03 10:14:02;;;;;;;2.33;0.70;;;;;;;17.75;66.79;100178.38;5027678;28;20049;-76
2022/10/03 10:16:27;;;;;;;3.10;1.10;;;;;;;17.88;67.38;100177.06;4959495;28;20107;-75
2022/10/03 10:19:11;;;;;;;4.32;0.90;;;;;;;17.75;67.04;100183.69;5028840;28;20132;-78
2022/10/03 10:22:04;;;;;;;4.63;2.15;;;;;;;17.56;68.86;100171.94;5000832;28;20128;-76
2022/10/03 10:24:51;;;;;;;5.07;1.20;;;;;;;17.46;70.56;100174.88;5028840;28;20096;-77
2022/10/03 10:27:54;;;;;;;5.85;1.65;;;;;;;17.91;70.00;100177.00;5017693;28;20079;-75
2022/10/03 10:30:56;;;;;;;7.20;1.35;;;;;;;18.31;68.52;100164.09;5018140;28;20144;-76
2022/10/03 10:33:27;;;;;;;3.05;0.90;;;;;;;18.38;68.08;100165.63;5024240;28;20069;-74
2022/10/03 10:36:12;;;;;;;3.83;1.08;;;;;;;18.56;67.82;100156.94;5010312;28;20113;-75
2022/10/03 10:39:11;;;;;;;5.60;1.63;;;;;;;18.91;66.09;100161.91;5024754;28;20049;-76
2022/10/03 10:42:00;;;;;;;1.75;0.65;;;;;;;19.18;65.44;100167.94;5028233;28;20048;-77
2022/10/03 10:45:13;;;;;;;4.20;1.10;;;;;;;19.05;65.25;100162.22;5028259;28;20068;-76
2022/10/03 10:47:53;;;;;;;5.10;1.17;;;;;;;19.01;65.63;100159.75;4991079;28;20050;-75
2022/10/03 10:51:05;;;;;;;3.45;1.65;;;;;;;19.00;65.70;100145.59;5008194;28;20061;-75
2022/10/03 10:54:02;;;;;;;1.77;1.20;;;;;;;19.24;64.86;100148.22;5019925;28;20128;-76
2022/10/03 10:56:41;;;;;;;4.50;1.42;;;;;;;18.98;65.41;100152.75;5025631;28;20041;-76
2022/10/03 10:59:28;;;;;;;1.75;0.57;;;;;;;18.88;65.50;100136.31;5027459;28;20038;-75
2022/10/03 11:02:21;;;;;;;6.30;1.20;;;;;;;19.09;65.70;100126.63;5027113;28;20021;-74
2022/10/03 11:05:24;;;;;;;2.97;1.75;;;;;;;19.06;65.93;100136.50;5016827;28;20033;-76
2022/10/03 11:08:12;;;;;;;2.47;0.90;;;;;;;18.75;64.83;100137.66;5020920;28;20513;-76
2022/10/03 11:11:09;;;;;;;4.57;1.17;;;;;;;18.80;64.66;100140.16;5004076;28;20049;-76
2022/10/03 11:13:57;;;;;;;3.45;1.33;;;;;;;18.87;63.75;100139.00;5025149;28;20022;-78
2022/10/03 11:17:10;;;;;;;8.27;0.80;;;;;;;18.69;65.56;100135.25;5020752;28;20073;-76
2022/10/03 11:20:13;;;;;;;6.17;1.60;;;;;;;19.01;64.20;100136.72;5015153;28;20100;-77
2022/10/03 11:22:39;;;;;;;3.47;1.50;;;;;;;18.86;64.85;100151.44;5023563;28;20127;-76
2022/10/03 11:25:29;;;;;;;3.25;1.30;;;;;;;18.90;63.34;100138.91;5028069;28;20112;-78
2022/10/03 11:28:20;;;;;;;5.20;1.38;;;;;;;18.29;63.60;100007.44;5024158;28;20045;-76
2022/10/03 11:31:19;;;;;;;2.13;1.30;;;;;;;18.93;63.02;100118.38;5027773;28;20446;-74
2022/10/03 11:34:00;;;;;;;1.98;0.80;;;;;;;19.06;62.97;100117.88;5020117;28;20033;-77
2022/10/03 11:36:54;;;;;;;4.95;1.60;;;;;;;19.36;62.76;100116.66;5023681;28;20052;-77
2022/10/03 11:39:40;;;;;;;2.25;1.17;;;;;;;19.47;62.20;100137.50;5020818;28;20772;-77
2022/10/03 11:42:20;;;;;;;6.35;1.80;;;;;;;18.79;62.12;100011.72;5027237;28;20041;-77
2022/10/03 11:45:02;;;;;;;4.45;2.53;;;;;;;19.42;61.37;100107.56;5008433;28;20037;-76
2022/10/03 11:48:08;;;;;;;3.13;1.63;;;;;;;19.69;61.79;100118.00;5020958;28;20046;-75
2022/10/03 11:50:54;;;;;;;3.72;1.45;;;;;;;18.67;60.93;99970.50;4942515;28;20076;-75
2022/10/03 11:53:42;;;;;;;3.33;1.60;;;;;;;19.03;61.74;100075.47;5023987;28;20041;-75
2022/10/03 11:56:23;;;;;;;3.15;1.77;;;;;;;18.85;63.64;100007.97;5020826;28;20037;-77
2022/10/03 11:58:52;;;;;;;3.40;1.48;;;;;;;19.42;60.77;100096.91;5027157;28;20036;-76
2022/10/03 12:01:23;;;;;;;4.30;1.40;;;;;;;19.63;60.31;100092.47;5027494;28;20083;-75
2022/10/03 12:04:19;;;;;;;5.72;1.60;;;;;;;19.39;59.74;100070.44;5023097;28;20102;-76
2022/10/03 12:10:06;;;;;;;3.92;1.92;;;;;;;19.73;59.54;100083.19;5022947;28;20071;-75
2022/10/03 12:12:43;;;;;;;3.08;1.52;;;;;;;19.53;58.54;100075.19;5016429;28;20053;-77
2022/10/03 12:15:23;;;;;;;7.32;2.05;;;;;;;19.76;59.43;100079.53;5027421;28;20047;-77
2022/10/03 12:18:22;;;;;;;3.65;1.98;;;;;;;19.68;60.72;100074.53;5025201;28;20049;-75
2022/10/03 12:21:09;;;;;;;4.03;1.27;;;;;;;17.89;54.97;100116.91;5022263;28;20136;-75
2022/10/03 12:24:01;;;;;;;2.38;0.90;;;;;;;17.42;55.59;100109.59;5026007;28;20504;-76
2022/10/03 12:26:42;;;;;;;2.00;0.50;;;;;;;16.39;55.32;100045.69;5026327;28;20137;-75
2022/10/03 12:29:13;;;;;;;2.40;0.38;;;;;;;15.84;56.90;100045.47;5017494;28;20044;-75
2022/10/03 12:31:48;;;;;;;3.28;0.88;;;;;;;15.32;59.98;100028.31;5014667;28;20061;-75
2022/10/03 12:34:41;;;;;;;1.67;0.45;;;;;;;15.79;62.00;100127.59;5024889;28;20043;-75
2022/10/03 12:37:34;;;;;;;7.27;1.50;;;;;;;16.15;60.96;100131.97;5021672;28;20045;-75
2022/10/03 12:40:15;;;;;;;1.20;0.40;;;;;;;15.58;64.05;100146.66;5026645;28;20052;-75
2022/10/03 12:42:46;;;;;;;1.60;0.43;;;;;;;15.62;64.45;100157.13;5017172;28;20045;-75
2022/10/03 12:45:19;;;;;;;1.60;0.40;;;;;;;15.36;66.14;100131.31;5022114;28;20627;-75
2022/10/03 12:48:32;;;;;;;2.78;1.00;;;;;;;15.45;68.22;100169.00;5026111;28;20049;-76
2022/10/03 12:51:17;;;;;;;4.35;1.23;;;;;;;14.37;71.50;100052.50;4990051;28;20707;-76
2022/10/03 12:53:43;;;;;;;1.77;0.57;;;;;;;14.78;74.83;100170.50;5026286;28;20053;-74
2022/10/03 12:56:40;;;;;;;34.50;1.77;;;;;;;14.84;74.63;100180.03;5026471;28;20072;-76
2022/10/03 12:59:57;;;;;;;5.55;0.60;;;;;;;15.01;74.77;100168.25;5014241;28;20069;-75
2022/10/03 13:02:37;;;;;;;15.20;1.10;;;;;;;14.53;79.43;100058.34;4997621;28;20080;-75
2022/10/03 13:05:23;;;;;;;3.58;0.70;;;;;;;14.80;80.88;100140.53;5008730;28;20739;-77
2022/10/03 13:08:32;;;;;;;5.00;1.42;;;;;;;14.04;82.70;100043.53;5022513;28;20036;-77